Time;durP1;ratioP1;P1;durP2;ratioP2;P2;SDS_P1;SDS_P2;PMS_P1;PMS_P2;Temp;Humidity;BMP_temperature;BMP_pressure;BME280_temperature;BME280_humidity;BME280_pressure;Samples;Min_cycle;Max_cycle;Signal;HPM_P1;HPM_P2
2022/01/24 00:00:15;;;;;;;46.38;27.70;;;;;;;3.56;85.48;103310.16;5012478;28;20111;-85
2022/01/24 00:02:42;;;;;;;49.25;28.38;;;;;;;3.50;85.26;103306.53;5029201;28;20034;-85
2022/01/24 00:05:08;;;;;;;47.65;28.13;;;;;;;3.54;86.69;103312.75;5026990;28;20033;-85
2022/01/24 00:07:34;;;;;;;46.88;28.05;;;;;;;3.54;87.71;103317.13;5029516;28;20158;-86
2022/01/24 00:10:03;;;;;;;45.30;27.42;;;;;;;3.47;86.82;103302.97;5030016;28;20040;-86
2022/01/24 00:12:37;;;;;;;47.67;27.55;;;;;;;3.52;87.50;103308.31;5030180;28;20033;-85
2022/01/24 00:15:14;;;;;;;47.20;27.33;;;;;;;3.52;85.02;103313.59;5027040;28;20033;-85
2022/01/24 00:17:41;;;;;;;50.17;27.15;;;;;;;3.50;86.23;103309.16;5029412;28;20035;-86
2022/01/24 00:28:22;;;;;;;40.85;24.25;;;;;;;3.53;85.87;103318.00;5029997;28;20351;-86
2022/01/24 00:30:47;;;;;;;39.40;24.60;;;;;;;3.52;84.75;103317.09;5029363;28;20021;-86
2022/01/24 00:33:13;;;;;;;44.03;25.27;;;;;;;3.53;85.33;103316.25;5029847;28;20077;-86
2022/01/24 00:35:39;;;;;;;45.50;26.08;;;;;;;3.52;84.37;103308.31;5025732;28;20029;-85
2022/01/24 00:38:04;;;;;;;44.38;26.25;;;;;;;3.50;85.06;103306.53;5011611;28;20029;-85
2022/01/24 00:40:38;;;;;;;45.92;25.77;;;;;;;3.52;85.50;103309.22;5029773;28;20076;-86
2022/01/24 00:43:10;;;;;;;46.53;26.60;;;;;;;3.53;85.02;103312.72;5029357;28;20075;-86
2022/01/24 00:45:51;;;;;;;43.08;26.42;;;;;;;3.52;84.64;103317.09;5024832;28;20423;-86
2022/01/24 00:48:31;;;;;;;46.17;26.77;;;;;;;3.50;85.20;103296.00;5029451;28;20037;-86
2022/01/24 00:56:11;;;;;;;39.15;23.52;;;;;;;3.50;83.96;103303.91;5026697;28;19917;-86
2022/01/24 00:58:37;;;;;;;44.20;26.52;;;;;;;3.52;85.02;103308.31;5029979;28;20025;-86
2022/01/24 01:01:04;;;;;;;40.50;24.90;;;;;;;3.50;85.09;103306.53;5029247;28;20390;-86
2022/01/24 01:03:29;;;;;;;41.35;25.17;;;;;;;3.50;84.17;103309.16;5028662;28;20390;-86
2022/01/24 01:06:06;;;;;;;42.67;25.75;;;;;;;3.48;85.02;103302.13;5026809;28;20113;-86
2022/01/24 01:19:31;;;;;;;37.90;24.05;;;;;;;3.45;84.39;103295.03;5028342;28;20056;-86
2022/01/24 01:21:57;;;;;;;40.55;24.55;;;;;;;3.45;84.75;103288.88;5028971;28;20030;-86
2022/01/24 01:24:23;;;;;;;45.05;25.85;;;;;;;3.47;84.47;103293.34;5026975;28;20027;-86
2022/01/24 01:26:58;;;;;;;41.50;24.67;;;;;;;3.45;84.64;103288.88;5028838;28;20030;-86
2022/01/24 01:29:32;;;;;;;42.42;24.88;;;;;;;3.45;84.55;103295.03;5028408;28;20025;-84
2022/01/24 01:32:12;;;;;;;40.80;23.85;;;;;;;3.44;84.16;103298.53;5025048;28;20272;-86
2022/01/24 01:37:42;;;;;;;41.10;23.85;;;;;;;3.39;84.30;103289.69;5028865;28;20033;-87
2022/01/24 01:40:25;;;;;;;42.55;24.35;;;;;;;3.41;84.80;103285.31;5028580;28;20029;-86
2022/01/24 01:52:24;;;;;;;40.03;23.80;;;;;;;3.42;84.72;103289.69;5025540;28;20044;-86
2022/01/24 01:54:14;;;;;;;;;;;;;;;3.46;86.57;103288.03;5014097;28;20449;-87
2022/01/24 01:56:40;;;;;;;;;;;;;;;3.47;86.57;103301.22;5027665;28;19917;-86
2022/01/24 01:59:06;;;;;;;38.10;21.58;;;;;;;3.33;84.67;103286.91;5028522;28;19920;-86
2022/01/24 02:01:31;;;;;;;34.90;21.45;;;;;;;3.40;84.87;103296.72;5027349;28;20116;-87
2022/01/24 02:03:57;;;;;;;40.00;22.67;;;;;;;3.36;84.43;103280.84;5026852;28;20025;-87
2022/01/24 02:06:23;;;;;;;36.35;22.75;;;;;;;3.36;83.93;103283.47;5025945;28;20040;-86
2022/01/24 02:08:57;;;;;;;30.58;19.50;;;;;;;3.37;83.22;103283.47;5028657;28;20080;-86
2022/01/24 02:11:22;;;;;;;36.42;21.50;;;;;;;3.35;83.81;103285.22;5027793;28;20030;-86
2022/01/24 02:13:48;;;;;;;35.10;21.40;;;;;;;3.35;83.75;103287.84;5027339;28;20025;-86
2022/01/24 02:16:29;;;;;;;36.08;21.25;;;;;;;3.32;83.16;103284.25;5026136;28;20429;-85
2022/01/24 02:19:11;;;;;;;35.13;22.02;;;;;;;3.34;83.29;103291.31;5026722;28;20025;-86
2022/01/24 02:21:44;;;;;;;36.83;21.92;;;;;;;3.33;83.41;103284.28;5027667;28;20029;-86
2022/01/24 02:24:12;;;;;;;34.83;21.02;;;;;;;3.35;83.14;103284.31;5025186;28;20029;-86
2022/01/24 02:26:38;;;;;;;38.58;23.05;;;;;;;3.34;83.45;103275.50;5027321;28;20026;-86
2022/01/24 02:29:43;;;;;;;36.40;21.70;;;;;;;3.31;84.60;103272.84;5027874;28;20495;-86
2022/01/24 02:31:51;;;;;;;37.30;22.08;;;;;;;3.30;84.03;103273.69;5027318;28;20045;-85
2022/01/24 02:34:34;;;;;;;36.10;20.42;;;;;;;3.33;83.84;103268.50;5007702;28;20514;-86
2022/01/24 02:37:08;;;;;;;38.42;21.52;;;;;;;3.33;83.39;103280.75;5027522;28;20025;-86
2022/01/24 02:39:52;;;;;;;36.10;21.52;;;;;;;3.32;83.94;103279.00;5027420;28;20038;-85
2022/01/24 02:53:21;;;;;;;;;;;;;;;3.35;84.65;103269.41;5027623;28;20060;-86
2022/01/24 02:55:47;;;;;;;37.85;22.13;;;;;;;3.24;82.93;103253.41;5025129;28;19917;-86
2022/01/24 02:58:13;;;;;;;35.63;22.42;;;;;;;3.31;83.42;103264.97;5027997;28;20036;-86
2022/01/24 03:00:39;;;;;;;41.35;23.85;;;;;;;3.30;83.68;103263.16;5027287;28;20387;-86
2022/01/24 03:03:04;;;;;;;38.17;23.60;;;;;;;3.29;84.27;103261.41;5027635;28;20033;-86
2022/01/24 03:05:30;;;;;;;37.30;23.15;;;;;;;3.27;84.52;103271.03;5006903;28;20028;-87
2022/01/24 03:07:56;;;;;;;37.83;24.08;;;;;;;3.26;83.73;103258.72;5027593;28;20472;-86
2022/01/24 03:10:34;;;;;;;37.42;23.63;;;;;;;3.28;84.26;103262.25;5031283;28;20033;-86
2022/01/24 03:13:17;;;;;;;42.63;24.77;;;;;;;3.27;84.63;103263.13;5031386;28;20579;-86
2022/01/24 03:15:44;;;;;;;36.10;21.85;;;;;;;3.26;84.53;103256.09;5028505;28;20482;-85
2022/01/24 03:18:10;;;;;;;40.95;23.52;;;;;;;3.25;84.67;103260.44;5030895;28;20029;-86
2022/01/24 03:20:36;;;;;;;38.40;23.02;;;;;;;3.27;84.96;103251.72;5013376;28;20083;-86
2022/01/24 03:23:02;;;;;;;39.22;23.98;;;;;;;3.26;84.13;103258.72;5031536;28;20486;-86
2022/01/24 03:25:28;;;;;;;38.97;23.67;;;;;;;3.23;84.81;103250.78;5028413;28;20029;-86
2022/01/24 03:27:54;;;;;;;44.70;26.02;;;;;;;3.25;84.26;103251.66;5031084;28;20029;-86
2022/01/24 03:30:19;;;;;;;38.92;24.67;;;;;;;3.25;84.83;103246.41;5030951;28;20025;-86
2022/01/24 03:32:44;;;;;;;44.63;25.50;;;;;;;3.20;83.09;103234.91;5030271;28;20047;-87
2022/01/24 03:35:10;;;;;;;42.42;25.58;;;;;;;3.19;82.93;103236.66;5029515;28;20144;-86
2022/01/24 03:37:36;;;;;;;42.08;25.52;;;;;;;3.25;84.12;103242.03;5029982;28;20498;-86
2022/01/24 03:40:03;;;;;;;41.42;24.50;;;;;;;3.20;83.92;103241.06;5031115;28;20390;-86
2022/01/24 03:42:29;;;;;;;41.92;25.65;;;;;;;3.18;83.14;103239.28;5030659;28;20037;-86
2022/01/24 03:44:58;;;;;;;43.97;25.92;;;;;;;3.21;82.85;103237.56;5011489;28;20018;-86
2022/01/24 03:47:42;;;;;;;44.50;26.73;;;;;;;3.22;83.09;103235.84;5027602;28;20098;-87
2022/01/24 03:50:15;;;;;;;43.40;26.80;;;;;;;3.23;83.70;103240.25;5030759;28;20041;-86
2022/01/24 03:52:41;;;;;;;46.33;26.33;;;;;;;3.23;83.47;103251.66;5030556;28;20127;-86
2022/01/24 03:55:06;;;;;;;39.40;24.38;;;;;;;3.22;84.07;103251.63;5029540;28;20076;-85
2022/01/24 03:57:31;;;;;;;40.95;24.92;;;;;;;3.20;83.36;103242.81;5028831;28;20084;-85
2022/01/24 03:59:57;;;;;;;41.22;23.90;;;;;;;3.23;84.29;103253.41;5029546;28;20040;-86
2022/01/24 04:02:25;;;;;;;38.78;24.48;;;;;;;3.23;83.97;103250.78;5029846;28;20493;-86
2022/01/24 04:04:51;;;;;;;42.30;25.35;;;;;;;3.20;85.06;103242.81;5012542;28;20033;-85
2022/01/24 04:07:17;;;;;;;39.70;24.58;;;;;;;3.23;85.21;103253.41;5009908;28;20025;-86
2022/01/24 04:09:43;;;;;;;39.28;23.95;;;;;;;3.22;84.97;103252.53;5029850;28;20253;-85
2022/01/24 04:12:11;;;;;;;40.42;25.23;;;;;;;3.22;85.43;103249.00;5029623;28;20017;-86
2022/01/24 04:22:29;;;;;;;46.50;26.15;;;;;;;3.20;86.74;103248.97;5027355;28;20108;-86
2022/01/24 04:24:59;;;;;;;42.80;24.95;;;;;;;3.20;86.22;103241.06;5027860;28;20034;-86
2022/01/24 04:27:26;;;;;;;47.70;27.25;;;;;;;3.19;86.00;103241.03;5024314;28;20048;-86
2022/01/24 04:29:51;;;;;;;49.65;27.02;;;;;;;3.18;85.85;103242.78;5027053;28;20116;-86
2022/01/24 04:32:16;;;;;;;47.28;26.77;;;;;;;3.18;85.66;103245.44;5027273;28;20479;-86
2022/01/24 04:34:42;;;;;;;48.88;27.73;;;;;;;3.18;85.88;103240.16;5027046;28;20018;-86
2022/01/24 04:37:08;;;;;;;49.33;27.67;;;;;;;3.15;86.20;103228.69;5007505;28;20451;-86
2022/01/24 04:39:33;;;;;;;51.08;28.33;;;;;;;3.16;86.79;103240.97;5026716;28;20064;-86
2022/01/24 04:42:06;;;;;;;46.55;27.15;;;;;;;3.14;86.60;103233.06;5026010;28;20109;-85
2022/01/24 04:47:26;;;;;;;45.67;27.10;;;;;;;3.15;86.84;103247.13;5025123;28;20494;-86
2022/01/24 04:52:57;;;;;;;46.65;25.65;;;;;;;3.14;85.12;103245.34;5026879;28;20584;-85
2022/01/24 04:55:22;;;;;;;43.33;25.50;;;;;;;3.15;85.70;103249.75;5024393;28;20522;-86
2022/01/24 04:57:48;;;;;;;46.42;26.67;;;;;;;3.14;86.69;103256.75;5025887;28;20114;-86
2022/01/24 05:00:14;;;;;;;42.58;25.05;;;;;;;3.11;85.55;103247.91;5027583;28;20625;-86
2022/01/24 05:02:39;;;;;;;46.47;26.38;;;;;;;3.14;85.67;103258.50;5029171;28;20044;-87
2022/01/24 05:05:08;;;;;;;50.60;28.23;;;;;;;3.13;85.74;103254.06;5027783;28;20040;-86
2022/01/24 05:07:34;;;;;;;53.00;29.27;;;;;;;3.10;85.70;103254.94;5028073;28;20022;-86
2022/01/24 05:23:37;;;;;;;45.10;24.45;;;;;;;3.03;84.55;103250.41;5028398;28;20049;-86
2022/01/24 05:26:08;;;;;;;39.35;23.30;;;;;;;3.06;84.50;103261.00;5029900;28;20025;-87
2022/01/24 05:28:35;;;;;;;39.90;22.80;;;;;;;3.03;84.74;103252.16;5028826;28;20034;-86
2022/01/24 05:31:01;;;;;;;41.17;23.30;;;;;;;3.05;84.12;103250.41;5028513;28;20483;-85
2022/01/24 05:33:28;;;;;;;40.67;24.52;;;;;;;3.04;84.82;103254.78;5026458;28;20041;-87
2022/01/24 05:35:53;;;;;;;38.58;22.73;;;;;;;3.02;84.13;103247.75;5016234;28;20331;-86
2022/01/24 05:38:21;;;;;;;39.85;22.98;;;;;;;3.02;83.64;103245.13;5028539;28;20041;-86
2022/01/24 05:40:47;;;;;;;42.22;22.58;;;;;;;3.02;83.45;103247.75;5027897;28;20032;-86
2022/01/24 05:43:12;;;;;;;42.28;23.23;;;;;;;3.00;83.62;103245.94;5028096;28;20025;-86
2022/01/24 05:45:38;;;;;;;40.80;22.83;;;;;;;2.99;83.63;103245.94;5025706;28;20049;-86
2022/01/24 05:48:03;;;;;;;43.05;23.65;;;;;;;2.99;84.23;103245.94;5028546;28;20116;-86
2022/01/24 05:50:29;;;;;;;43.15;23.48;;;;;;;2.99;85.17;103251.19;5028407;28;20433;-86
2022/01/24 05:52:55;;;;;;;43.50;23.25;;;;;;;2.97;84.21;103256.44;5026589;28;20045;-86
2022/01/24 05:55:20;;;;;;;40.78;23.02;;;;;;;2.97;84.42;103258.19;5026821;28;20040;-85
2022/01/24 05:57:45;;;;;;;40.38;23.20;;;;;;;2.94;83.55;103251.09;5027732;28;20048;-84
2022/01/24 06:00:12;;;;;;;38.58;22.50;;;;;;;2.94;83.24;103256.38;5028226;28;20030;-86
2022/01/24 06:02:38;;;;;;;41.50;23.00;;;;;;;2.90;83.12;103257.16;5026986;28;20128;-84
2022/01/24 06:05:04;;;;;;;38.22;22.67;;;;;;;2.89;83.98;103251.88;5025472;28;20299;-85
2022/01/24 06:07:29;;;;;;;38.15;22.20;;;;;;;2.87;83.03;103251.84;5027834;28;20034;-84
2022/01/24 06:09:55;;;;;;;38.50;21.42;;;;;;;2.89;83.88;103252.78;5027012;28;20021;-85
2022/01/24 06:12:20;;;;;;;38.00;22.52;;;;;;;2.88;84.30;103253.59;5027802;28;20398;-84
2022/01/24 06:14:46;;;;;;;36.85;21.60;;;;;;;2.88;84.32;103258.88;5026206;28;20037;-85
2022/01/24 06:17:11;;;;;;;38.92;21.30;;;;;;;2.83;83.67;103255.25;5020338;28;20580;-85
2022/01/24 06:19:37;;;;;;;39.10;22.58;;;;;;;2.87;84.31;103253.59;5026090;28;20116;-86
2022/01/24 06:22:03;;;;;;;40.53;21.63;;;;;;;2.88;84.26;103257.97;5027890;28;20108;-85
2022/01/24 06:24:28;;;;;;;39.35;21.88;;;;;;;2.88;84.18;103257.97;5026618;28;20041;-85
2022/01/24 06:26:53;;;;;;;38.97;22.13;;;;;;;2.85;84.60;103250.94;5024583;28;20474;-85
2022/01/24 06:29:18;;;;;;;37.38;21.73;;;;;;;2.85;84.72;103255.31;5027408;28;20022;-86
2022/01/24 06:31:44;;;;;;;40.83;22.98;;;;;;;2.84;85.19;103249.13;5026307;28;20045;-86
2022/01/24 06:34:09;;;;;;;40.75;21.88;;;;;;;2.86;84.27;103257.97;5027362;28;20119;-85
2022/01/24 06:36:34;;;;;;;37.88;22.50;;;;;;;2.84;84.68;103261.41;5026003;28;20379;-86
2022/01/24 06:39:01;;;;;;;42.95;22.27;;;;;;;2.82;83.85;103252.63;5023586;28;20037;-87
2022/01/24 06:41:32;;;;;;;38.13;21.83;;;;;;;2.84;84.60;103256.16;5027051;28;20188;-86
2022/01/24 06:43:57;;;;;;;39.60;22.75;;;;;;;2.83;84.85;103254.38;5025794;28;20040;-86
2022/01/24 06:46:22;;;;;;;43.80;23.05;;;;;;;2.79;85.57;103245.53;5028043;28;20379;-85
2022/01/24 06:48:47;;;;;;;40.28;22.58;;;;;;;2.81;85.43;103254.38;5031201;28;20029;-86
2022/01/24 06:51:13;;;;;;;38.83;21.65;;;;;;;2.79;85.46;103253.44;5031193;28;20029;-86
2022/01/24 06:53:39;;;;;;;39.17;22.77;;;;;;;2.74;85.57;103253.34;5030039;28;20072;-86
2022/01/24 06:56:05;;;;;;;38.92;22.27;;;;;;;2.79;85.13;103256.06;5028570;28;20029;-86
2022/01/24 06:58:31;;;;;;;40.95;21.83;;;;;;;2.78;85.25;103258.66;5031430;28;20029;-86
2022/01/24 07:00:57;;;;;;;39.55;22.95;;;;;;;2.79;85.37;103270.97;5032864;28;20035;-86
2022/01/24 07:03:22;;;;;;;42.42;24.55;;;;;;;2.77;85.05;103257.78;5032498;28;20061;-86
2022/01/24 07:05:47;;;;;;;44.10;23.48;;;;;;;2.76;85.23;103266.53;5029229;28;20021;-86
2022/01/24 07:08:13;;;;;;;41.53;24.05;;;;;;;2.77;85.20;103265.69;5030596;28;20021;-87
2022/01/24 07:10:38;;;;;;;44.78;23.55;;;;;;;2.75;85.15;103259.47;5029495;28;20036;-84
2022/01/24 07:13:03;;;;;;;41.92;23.77;;;;;;;2.75;84.94;103256.84;5029549;28;20038;-86
2022/01/24 07:15:35;;;;;;;42.97;24.15;;;;;;;2.71;85.31;103257.66;5023449;28;20491;-88
2022/01/24 07:18:17;;;;;;;42.92;23.52;;;;;;;2.73;85.32;103269.97;5028858;28;20021;-87
2022/01/24 07:20:42;;;;;;;42.20;23.85;;;;;;;2.68;84.35;103263.75;5029326;28;20095;-85
2022/01/24 07:23:08;;;;;;;41.83;24.48;;;;;;;2.70;84.44;103269.03;5030232;28;20494;-84
2022/01/24 07:25:33;;;;;;;39.50;23.52;;;;;;;2.71;83.83;103274.31;5009700;28;20033;-86
2022/01/24 07:27:58;;;;;;;45.65;25.50;;;;;;;2.70;84.45;103275.19;5027174;28;20033;-87
2022/01/24 07:30:24;;;;;;;45.83;26.27;;;;;;;2.68;83.99;103274.28;5029421;28;20025;-85
2022/01/24 07:32:50;;;;;;;41.75;25.25;;;;;;;2.66;83.56;103268.06;5030765;28;20031;-85
2022/01/24 07:35:16;;;;;;;46.22;26.35;;;;;;;2.67;84.14;103277.72;5031623;28;20033;-83
2022/01/24 07:37:41;;;;;;;49.67;27.65;;;;;;;2.68;84.20;103282.16;5029810;28;20107;-85
2022/01/24 07:40:09;;;;;;;45.00;25.80;;;;;;;2.68;84.07;103281.28;5031258;28;20033;-86
2022/01/24 07:45:26;;;;;;;45.60;24.70;;;;;;;2.67;84.38;103282.09;5018632;28;20125;-84
2022/01/24 07:47:52;;;;;;;42.83;25.30;;;;;;;2.67;83.91;103275.09;5030725;28;20517;-84
2022/01/24 07:50:21;;;;;;;42.50;24.63;;;;;;;2.70;83.47;103282.19;5030846;28;20461;-86
2022/01/24 07:52:46;;;;;;;41.95;25.30;;;;;;;2.70;82.86;103287.44;5010955;28;20041;-87
2022/01/24 07:55:11;;;;;;;49.90;26.75;;;;;;;2.69;83.22;103283.03;5018910;28;20048;-87
2022/01/24 07:57:37;;;;;;;50.40;26.58;;;;;;;2.66;84.15;103275.09;5028485;28;20067;-88
2022/01/24 08:00:04;;;;;;;46.28;26.63;;;;;;;2.71;83.52;103291.84;5020573;28;20030;-87
2022/01/24 08:02:30;;;;;;;41.75;24.05;;;;;;;2.72;82.78;103298.91;5016344;28;20135;-87
2022/01/24 08:04:55;;;;;;;43.08;25.05;;;;;;;2.67;81.88;103306.66;5026919;28;20068;-87
2022/01/24 08:07:20;;;;;;;45.33;25.95;;;;;;;2.67;83.14;103305.78;5030052;28;20406;-84
2022/01/24 08:09:46;;;;;;;43.97;25.52;;;;;;;2.70;82.87;103316.38;5030636;28;20049;-86
2022/01/24 08:12:11;;;;;;;46.65;26.13;;;;;;;2.70;83.24;103319.88;5030802;28;20057;-85
2022/01/24 08:14:36;;;;;;;42.47;25.33;;;;;;;2.68;81.98;103315.47;5026156;28;20475;-85
2022/01/24 08:17:03;;;;;;;43.28;25.08;;;;;;;2.70;82.58;103314.63;5030920;28;20075;-87
2022/01/24 08:19:29;;;;;;;44.22;25.33;;;;;;;2.72;82.74;103317.31;5015445;28;20056;-88
2022/01/24 08:21:56;;;;;;;42.10;23.85;;;;;;;2.69;82.48;103311.97;5030251;28;20490;-88
2022/01/24 08:24:22;;;;;;;42.72;24.50;;;;;;;2.75;82.70;103319.97;5009519;28;20505;-85
2022/01/24 08:26:47;;;;;;;43.47;25.17;;;;;;;2.75;82.68;103317.34;5030224;28;20026;-84
2022/01/24 08:29:13;;;;;;;42.58;23.92;;;;;;;2.79;82.60;103318.31;5029378;28;21558;-84
2022/01/24 08:31:38;;;;;;;40.92;22.73;;;;;;;2.79;83.14;103311.28;5030520;28;20545;-85
2022/01/24 08:34:03;;;;;;;42.58;24.23;;;;;;;2.83;82.75;103315.75;5025802;28;20025;-86
2022/01/24 08:36:29;;;;;;;43.65;25.23;;;;;;;2.86;82.81;103315.84;5029462;28;20606;-86
2022/01/24 08:38:57;;;;;;;41.65;23.92;;;;;;;2.84;82.55;103314.91;5029404;28;20033;-86
2022/01/24 08:41:29;;;;;;;45.13;26.17;;;;;;;2.88;82.58;103313.22;5028571;28;20112;-86
2022/01/24 08:44:10;;;;;;;43.95;24.45;;;;;;;2.89;82.82;103310.66;5016051;28;20095;-85
2022/01/24 08:46:36;;;;;;;45.50;24.70;;;;;;;2.89;81.87;103307.13;5026193;28;20037;-85
2022/01/24 08:49:01;;;;;;;42.50;23.80;;;;;;;2.90;82.59;103312.41;5029295;28;20040;-85
2022/01/24 08:51:26;;;;;;;44.45;24.67;;;;;;;2.97;83.25;103318.69;5029605;28;20032;-86
2022/01/24 08:53:51;;;;;;;45.92;24.98;;;;;;;3.01;83.35;103310.00;5028296;28;20515;-85
2022/01/24 08:56:18;;;;;;;42.28;23.90;;;;;;;3.03;82.85;103321.44;5028294;28;20029;-85
2022/01/24 08:58:44;;;;;;;43.17;24.67;;;;;;;3.00;82.65;103316.09;5011224;28;20497;-85
2022/01/24 09:01:09;;;;;;;42.63;24.23;;;;;;;3.06;83.23;103308.34;5029309;28;20117;-84
2022/01/24 09:03:39;;;;;;;40.45;23.50;;;;;;;3.07;82.39;103310.13;5029232;28;20388;-85
2022/01/24 09:06:05;;;;;;;45.42;25.83;;;;;;;3.09;81.68;103318.91;5024044;28;20028;-84
2022/01/24 09:08:30;;;;;;;43.83;25.13;;;;;;;3.10;81.64;103320.72;5020646;28;20033;-85
2022/01/24 09:10:56;;;;;;;42.55;24.42;;;;;;;3.11;81.95;103318.97;5020779;28;20261;-84
2022/01/24 09:13:21;;;;;;;47.05;25.65;;;;;;;3.13;82.08;103320.75;5021179;28;20588;-85
2022/01/24 09:15:47;;;;;;;43.42;24.90;;;;;;;3.12;80.65;103323.34;5013326;28;20025;-86
2022/01/24 09:18:14;;;;;;;43.08;25.38;;;;;;;3.06;80.58;103315.34;5027557;28;20110;-85
2022/01/24 09:20:39;;;;;;;44.30;24.17;;;;;;;3.08;81.07;103318.88;5025935;28;20108;-85
2022/01/24 09:23:09;;;;;;;43.15;24.52;;;;;;;3.07;81.02;103314.50;5029207;28;20121;-85
2022/01/24 09:25:35;;;;;;;42.75;24.70;;;;;;;3.10;81.44;103331.22;5029082;28;20025;-85
2022/01/24 09:28:00;;;;;;;44.67;24.55;;;;;;;3.13;82.26;103315.47;5028855;28;20032;-85
2022/01/24 09:30:26;;;;;;;41.17;23.38;;;;;;;3.20;81.33;103325.28;5024909;28;20388;-85
2022/01/24 09:32:52;;;;;;;40.05;21.75;;;;;;;3.20;80.57;103322.66;5010229;28;20398;-85
2022/01/24 09:35:18;;;;;;;39.08;22.02;;;;;;;3.24;81.12;103326.22;5029315;28;20026;-85
2022/01/24 09:37:46;;;;;;;41.65;22.85;;;;;;;3.25;81.86;103320.09;5027703;28;20298;-85
2022/01/24 09:40:13;;;;;;;39.00;22.55;;;;;;;3.31;81.13;103327.25;5026664;28;20440;-85
2022/01/24 09:42:39;;;;;;;40.70;23.02;;;;;;;3.32;80.73;103324.63;5027127;28;20164;-85
2022/01/24 09:45:05;;;;;;;45.10;25.60;;;;;;;3.32;78.95;103321.13;5025909;28;20549;-85
2022/01/24 09:47:31;;;;;;;44.72;25.77;;;;;;;3.33;79.95;103317.63;5028130;28;20037;-86
2022/01/24 09:49:57;;;;;;;43.30;24.42;;;;;;;3.27;79.28;103305.25;5026004;28;20067;-86
2022/01/24 09:52:22;;;;;;;44.95;24.75;;;;;;;3.29;79.26;103308.78;5026741;28;20041;-85
2022/01/24 09:54:47;;;;;;;44.53;25.27;;;;;;;3.38;79.18;103316.84;5030011;28;20375;-86
2022/01/24 09:57:13;;;;;;;41.20;24.63;;;;;;;3.46;80.01;103316.97;5029702;28;20031;-86
2022/01/24 09:59:38;;;;;;;43.42;25.05;;;;;;;3.53;79.24;103318.00;5028604;28;20032;-85
2022/01/24 10:02:04;;;;;;;47.92;27.00;;;;;;;3.52;79.09;103303.06;5027276;28;20056;-85
2022/01/24 10:04:29;;;;;;;45.65;26.45;;;;;;;3.58;79.68;103314.56;5029905;28;20426;-86
2022/01/24 10:07:04;;;;;;;46.25;26.13;;;;;;;3.62;79.45;103316.41;5013019;28;20555;-86
2022/01/24 10:09:36;;;;;;;43.30;25.23;;;;;;;3.68;79.72;103313.88;5029951;28;20043;-86
2022/01/24 10:12:19;;;;;;;47.95;26.95;;;;;;;3.71;79.31;103303.38;5028004;28;20120;-86
2022/01/24 10:17:32;;;;;;;52.28;28.73;;;;;;;3.85;78.62;103318.56;5028891;28;20091;-89
2022/01/24 10:20:35;;;;;;;50.17;28.92;;;;;;;3.95;79.35;103315.19;5008708;28;20033;-86
2022/01/24 10:23:06;;;;;;;47.28;25.67;;;;;;;3.96;77.91;103316.97;5013158;28;20442;-84
2022/01/24 10:25:32;;;;;;;45.70;25.77;;;;;;;3.98;77.91;103305.59;5022387;28;20037;-85
2022/01/24 10:28:04;;;;;;;39.80;23.25;;;;;;;4.03;77.26;103317.97;5028277;28;20462;-85
2022/01/24 10:30:31;;;;;;;45.38;24.90;;;;;;;4.01;76.92;103315.28;5027456;28;20034;-86
2022/01/24 10:32:57;;;;;;;48.42;25.52;;;;;;;4.04;77.46;103312.69;5028253;28;20035;-86
2022/01/24 10:35:43;;;;;;;43.58;25.08;;;;;;;4.12;77.67;103318.97;5029373;28;20029;-85
2022/01/24 10:38:18;;;;;;;43.05;24.20;;;;;;;4.14;76.24;103311.09;5030975;28;20109;-85
2022/01/24 10:41:09;;;;;;;42.65;24.52;;;;;;;4.08;75.85;103308.38;5028441;28;20056;-86
2022/01/24 10:43:37;;;;;;;45.33;25.23;;;;;;;4.15;76.67;103307.59;5029622;28;20113;-86
2022/01/24 10:46:03;;;;;;;44.72;24.80;;;;;;;4.18;76.32;103305.00;5031052;28;20026;-86
2022/01/24 10:48:33;;;;;;;41.80;25.45;;;;;;;4.19;76.27;103297.13;5029957;28;20034;-85
2022/01/24 10:51:09;;;;;;;41.13;24.30;;;;;;;4.26;75.50;103300.72;5027540;28;20026;-86
2022/01/24 10:53:44;;;;;;;43.13;24.58;;;;;;;4.27;76.30;103297.25;5028771;28;20108;-85
2022/01/24 10:56:37;;;;;;;42.58;23.80;;;;;;;4.27;76.84;103293.72;5029382;28;20387;-86
2022/01/24 10:59:18;;;;;;;43.45;23.92;;;;;;;4.16;76.31;103270.72;5029221;28;20430;-86
2022/01/24 11:01:49;;;;;;;37.88;22.63;;;;;;;4.28;76.23;103290.22;5028394;28;20435;-86
2022/01/24 11:04:15;;;;;;;39.65;22.05;;;;;;;4.29;74.78;103294.63;5029304;28;20065;-85
2022/01/24 11:06:49;;;;;;;39.30;22.13;;;;;;;4.23;74.88;103284.88;5029211;28;20239;-85
2022/01/24 11:09:19;;;;;;;;;;;;;;;4.34;77.26;103282.38;5029263;28;20083;-85
2022/01/24 11:11:44;;;;;;;39.03;22.27;;;;;;;4.28;75.85;103292.84;5027867;28;19932;-86
2022/01/24 11:14:13;;;;;;;39.53;22.65;;;;;;;4.28;75.72;103299.00;5029226;28;20025;-84
2022/01/24 11:16:39;;;;;;;40.45;24.42;;;;;;;4.24;74.98;103287.53;5023310;28;20497;-85
2022/01/24 11:19:11;;;;;;;38.63;23.17;;;;;;;4.38;74.77;103286.84;5016830;28;20042;-86
2022/01/24 11:21:38;;;;;;;41.17;23.80;;;;;;;4.39;75.17;103278.97;5022494;28;20028;-86
2022/01/24 11:24:06;;;;;;;38.28;22.38;;;;;;;4.45;74.92;103284.31;5021293;28;20431;-86
2022/01/24 11:26:32;;;;;;;42.78;23.60;;;;;;;4.46;75.13;103283.44;5029677;28;20029;-86
2022/01/24 11:28:57;;;;;;;39.03;23.13;;;;;;;4.50;74.81;103287.00;5027112;28;20072;-86
2022/01/24 11:31:33;;;;;;;40.92;23.60;;;;;;;4.44;73.98;103282.53;5030452;28;20029;-85
2022/01/24 11:34:12;;;;;;;42.17;23.00;;;;;;;4.32;75.40;103263.91;5028248;28;20131;-85
2022/01/24 11:36:41;;;;;;;41.47;22.02;;;;;;;4.36;74.96;103273.66;5032359;28;20197;-85
2022/01/24 11:39:07;;;;;;;38.72;22.85;;;;;;;4.40;74.97;103274.56;5031132;28;20060;-86
2022/01/24 11:41:35;;;;;;;40.47;23.10;;;;;;;4.45;74.42;103271.13;5028679;28;20049;-85
2022/01/24 11:44:08;;;;;;;43.83;24.48;;;;;;;4.50;75.03;103279.97;5030658;28;20355;-84
2022/01/24 11:46:35;;;;;;;40.25;23.50;;;;;;;4.54;74.78;103277.38;5033809;28;20028;-84
2022/01/24 11:49:04;;;;;;;40.42;22.15;;;;;;;4.52;74.55;103273.84;5033229;28;20034;-85
2022/01/24 11:51:32;;;;;;;37.83;22.80;;;;;;;4.49;74.33;103272.06;5030837;28;20036;-85
2022/01/24 11:53:58;;;;;;;36.58;21.27;;;;;;;4.52;74.38;103285.28;5033698;28;20039;-85
2022/01/24 11:56:26;;;;;;;40.38;23.92;;;;;;;4.49;73.88;103270.28;5028515;28;20509;-85
2022/01/24 11:59:20;;;;;;;41.60;22.17;;;;;;;4.56;74.72;103275.66;5032135;28;20356;-85
2022/01/24 12:01:52;;;;;;;40.28;24.00;;;;;;;4.62;74.39;103270.47;5029043;28;20390;-86
2022/01/24 12:04:54;;;;;;;41.15;24.00;;;;;;;4.72;75.15;103261.78;5032262;28;20029;-86
2022/01/24 12:07:20;;;;;;;40.42;23.55;;;;;;;4.75;73.58;103249.50;5034158;28;20033;-86
2022/01/24 12:09:46;;;;;;;41.47;24.60;;;;;;;4.78;72.66;103243.41;5031361;28;20120;-86
2022/01/24 12:12:43;;;;;;;39.42;23.80;;;;;;;4.89;73.41;103252.34;5014886;28;20094;-86
2022/01/24 12:15:10;;;;;;;43.00;24.52;;;;;;;4.90;72.40;103247.94;5019812;28;20057;-86
2022/01/24 12:17:48;;;;;;;42.55;23.60;;;;;;;4.91;73.13;103254.97;5031246;28;20026;-85
2022/01/24 12:20:31;;;;;;;39.40;23.13;;;;;;;4.86;73.61;103246.13;5029730;28;20461;-87
2022/01/24 12:23:15;;;;;;;40.95;23.05;;;;;;;4.86;72.08;103246.13;5032917;28;20082;-86
2022/01/24 12:26:10;;;;;;;39.78;22.52;;;;;;;4.96;73.56;103248.00;5012596;28;20903;-86
2022/01/24 12:28:41;;;;;;;;;;;;;;;5.07;74.30;103250.75;5025846;28;20076;-86
2022/01/24 12:31:22;;;;;;;39.83;22.27;;;;;;;4.93;71.59;103248.84;5030031;28;20069;-87
2022/01/24 12:33:53;;;;;;;43.60;24.70;;;;;;;4.91;72.35;103242.66;5033472;28;20048;-86
2022/01/24 12:36:48;;;;;;;37.60;22.15;;;;;;;4.93;72.80;103243.59;5033112;28;20032;-86
2022/01/24 12:39:19;;;;;;;37.75;22.10;;;;;;;5.03;72.99;103239.28;5031811;28;20029;-86
2022/01/24 12:41:48;;;;;;;40.25;24.30;;;;;;;5.10;72.74;103237.56;5028682;28;20383;-86
2022/01/24 12:47:19;;;;;;;39.55;24.05;;;;;;;5.34;72.68;103229.88;5009271;28;20069;-86
2022/01/24 12:49:47;;;;;;;39.38;22.98;;;;;;;5.37;72.26;103234.31;5011328;28;20403;-86